createdAt,value
2022-10-01T00:01:17.733Z,100.00
2022-10-01T00:03:45.062Z,100.00
2022-10-01T00:06:21.596Z,100.00
2022-10-01T00:08:50.812Z,100.00
2022-10-01T00:11:21.397Z,100.00
2022-10-01T00:13:48.670Z,100.00
2022-10-01T00:16:18.749Z,100.00
2022-10-01T00:18:48.221Z,100.00
2022-10-01T00:21:27.073Z,100.00
2022-10-01T00:24:03.201Z,100.00
2022-10-01T00:26:35.058Z,100.00
2022-10-01T00:29:07.822Z,100.00
2022-10-01T00:31:34.907Z,100.00
2022-10-01T00:34:03.374Z,100.00
2022-10-01T00:36:31.772Z,100.00
2022-10-01T00:39:00.657Z,100.00
2022-10-01T00:41:29.676Z,100.00
2022-10-01T00:43:58.871Z,100.00
2022-10-01T00:46:32.368Z,100.00
2022-10-01T00:49:07.148Z,100.00
2022-10-01T00:51:42.883Z,100.00
2022-10-01T00:54:22.681Z,100.00
2022-10-01T00:56:53.260Z,100.00
2022-10-01T00:59:21.057Z,100.00
2022-10-01T01:01:48.756Z,100.00
2022-10-01T01:04:18.425Z,100.00
2022-10-01T01:06:53.820Z,100.00
2022-10-01T01:09:22.985Z,100.00
2022-10-01T01:12:19.142Z,100.00
2022-10-01T01:15:04.990Z,100.00
2022-10-01T01:17:59.254Z,100.00
2022-10-01T01:20:49.935Z,100.00
2022-10-01T01:23:16.635Z,100.00
2022-10-01T01:25:54.324Z,100.00
2022-10-01T01:28:31.626Z,100.00
2022-10-01T01:31:04.906Z,100.00
2022-10-01T01:33:34.388Z,100.00
2022-10-01T01:36:09.659Z,100.00
2022-10-01T01:38:45.353Z,100.00
2022-10-01T01:41:14.546Z,100.00
2022-10-01T01:43:46.107Z,100.00
2022-10-01T01:46:17.744Z,100.00
2022-10-01T01:48:47.624Z,100.00
2022-10-01T01:51:25.155Z,100.00
2022-10-01T01:53:52.191Z,100.00
2022-10-01T01:56:18.964Z,100.00
2022-10-01T01:58:46.341Z,100.00
2022-10-01T02:01:34.417Z,100.00
2022-10-01T02:04:05.391Z,100.00
2022-10-01T02:06:35.297Z,100.00
2022-10-01T02:09:08.765Z,100.00
2022-10-01T02:11:46.854Z,100.00
2022-10-01T02:14:46.784Z,100.00
2022-10-01T02:17:32.469Z,100.00
2022-10-01T02:20:18.607Z,100.00
2022-10-01T02:22:52.828Z,100.00
2022-10-01T02:25:27.070Z,100.00
2022-10-01T02:28:10.156Z,100.00
2022-10-01T02:30:39.524Z,100.00
2022-10-01T02:33:11.066Z,100.00
2022-10-01T02:35:38.970Z,100.00
2022-10-01T02:38:07.313Z,100.00
2022-10-01T02:40:37.766Z,100.00
2022-10-01T02:43:12.533Z,100.00
2022-10-01T02:45:41.700Z,100.00
2022-10-01T02:48:11.428Z,100.00
2022-10-01T02:51:15.919Z,100.00
2022-10-01T02:53:47.446Z,100.00
2022-10-01T02:56:34.899Z,100.00
2022-10-01T02:59:01.750Z,100.00
2022-10-01T03:01:28.658Z,100.00
2022-10-01T03:03:55.410Z,100.00
2022-10-01T03:06:22.479Z,100.00
2022-10-01T03:08:49.343Z,100.00
2022-10-01T03:11:16.334Z,100.00
2022-10-01T03:13:43.795Z,100.00
2022-10-01T03:16:10.589Z,100.00
2022-10-01T03:18:37.482Z,100.00
2022-10-01T03:21:04.319Z,100.00
2022-10-01T03:23:31.005Z,100.00
2022-10-01T03:25:57.768Z,100.00
2022-10-01T03:28:24.536Z,100.00
2022-10-01T03:30:51.220Z,100.00
2022-10-01T03:33:17.961Z,100.00
2022-10-01T03:35:44.636Z,100.00
2022-10-01T03:38:13.381Z,100.00
2022-10-01T03:40:40.145Z,100.00
2022-10-01T03:43:07.216Z,100.00
2022-10-01T03:45:33.925Z,100.00
2022-10-01T03:48:00.897Z,100.00
2022-10-01T03:50:27.606Z,100.00
2022-10-01T03:52:54.296Z,100.00
2022-10-01T03:55:21.143Z,100.00
2022-10-01T03:57:47.890Z,100.00
2022-10-01T04:00:14.685Z,100.00
2022-10-01T04:02:41.559Z,100.00
2022-10-01T04:05:08.924Z,100.00
2022-10-01T04:07:35.894Z,100.00
2022-10-01T04:10:02.524Z,100.00
2022-10-01T04:12:29.197Z,100.00
2022-10-01T04:14:55.906Z,100.00
2022-10-01T04:17:22.628Z,100.00
2022-10-01T04:19:49.284Z,100.00
2022-10-01T04:22:15.923Z,100.00
2022-10-01T04:24:42.606Z,100.00
2022-10-01T04:27:09.673Z,100.00
2022-10-01T04:29:40.055Z,100.00
2022-10-01T04:32:07.473Z,100.00
2022-10-01T04:34:52.533Z,100.00
2022-10-01T04:37:20.145Z,100.00
2022-10-01T04:39:47.815Z,100.00
2022-10-01T04:42:15.262Z,100.00
2022-10-01T04:44:42.073Z,100.00
2022-10-01T04:47:09.007Z,100.00
2022-10-01T04:49:36.153Z,100.00
2022-10-01T04:52:04.028Z,100.00
2022-10-01T04:54:31.025Z,100.00
2022-10-01T04:57:00.517Z,100.00
2022-10-01T04:59:27.317Z,100.00
2022-10-01T05:01:53.997Z,100.00
2022-10-01T05:04:20.742Z,100.00
2022-10-01T05:06:47.474Z,100.00
2022-10-01T05:09:14.326Z,100.00
2022-10-01T05:11:41.029Z,100.00
2022-10-01T05:14:07.674Z,100.00
2022-10-01T05:16:34.433Z,100.00
2022-10-01T05:19:01.082Z,100.00
2022-10-01T05:21:27.859Z,100.00
2022-10-01T05:23:55.029Z,100.00
2022-10-01T05:26:21.868Z,100.00
2022-10-01T05:28:48.897Z,100.00
2022-10-01T05:31:16.015Z,100.00
2022-10-01T05:33:42.667Z,100.00
2022-10-01T05:36:09.549Z,100.00
2022-10-01T05:38:37.400Z,100.00
2022-10-01T05:41:04.869Z,100.00
2022-10-01T05:43:31.995Z,100.00
2022-10-01T05:46:03.792Z,100.00
2022-10-01T05:48:34.621Z,100.00
2022-10-01T05:51:03.154Z,100.00
2022-10-01T05:53:29.944Z,100.00
2022-10-01T05:55:58.718Z,100.00
2022-10-01T05:58:26.201Z,100.00
2022-10-01T06:00:55.071Z,100.00
2022-10-01T06:03:22.076Z,100.00
2022-10-01T06:05:48.808Z,100.00
2022-10-01T06:08:15.962Z,100.00
2022-10-01T06:10:43.698Z,100.00
2022-10-01T06:13:11.475Z,100.00
2022-10-01T06:15:39.137Z,100.00
2022-10-01T06:18:08.249Z,100.00
2022-10-01T06:20:35.969Z,100.00
2022-10-01T06:23:05.842Z,100.00
2022-10-01T06:25:33.143Z,100.00
2022-10-01T06:27:59.944Z,100.00
2022-10-01T06:30:31.964Z,100.00
2022-10-01T06:33:08.410Z,100.00
2022-10-01T06:35:40.213Z,100.00
2022-10-01T06:38:08.062Z,100.00
2022-10-01T06:40:35.137Z,100.00
2022-10-01T06:43:01.855Z,100.00
2022-10-01T06:45:30.722Z,100.00
2022-10-01T06:47:59.774Z,100.00
2022-10-01T06:50:26.510Z,100.00
2022-10-01T06:52:53.358Z,100.00
2022-10-01T06:55:29.029Z,100.00
2022-10-01T06:57:58.488Z,100.00
2022-10-01T07:00:26.997Z,100.00
2022-10-01T07:02:55.621Z,100.00
2022-10-01T07:05:23.389Z,100.00
2022-10-01T07:07:50.662Z,100.00
2022-10-01T07:10:21.017Z,100.00
2022-10-01T07:12:49.071Z,100.00
2022-10-01T07:15:18.148Z,100.00
2022-10-01T07:17:48.432Z,100.00
2022-10-01T07:20:17.807Z,100.00
2022-10-01T07:22:44.986Z,100.00
2022-10-01T07:25:11.759Z,100.00
2022-10-01T07:27:38.571Z,100.00
2022-10-01T07:30:06.809Z,100.00
2022-10-01T07:32:35.479Z,100.00
2022-10-01T07:35:02.345Z,100.00
2022-10-01T07:37:29.308Z,100.00
2022-10-01T07:39:56.064Z,100.00
2022-10-01T07:42:22.734Z,100.00
2022-10-01T07:44:49.360Z,100.00
2022-10-01T07:47:16.067Z,100.00
2022-10-01T07:49:42.743Z,100.00
2022-10-01T07:52:13.124Z,100.00
2022-10-01T07:54:40.401Z,100.00
2022-10-01T07:57:07.101Z,100.00
2022-10-01T07:59:33.841Z,100.00
2022-10-01T08:02:01.060Z,100.00
2022-10-01T08:04:46.347Z,100.00
2022-10-01T08:07:13.149Z,100.00
2022-10-01T08:09:39.820Z,100.00
2022-10-01T08:12:06.570Z,100.00
2022-10-01T08:14:33.309Z,100.00
2022-10-01T08:17:00.035Z,100.00
2022-10-01T08:19:27.108Z,100.00
2022-10-01T08:21:53.785Z,100.00
2022-10-01T08:24:20.448Z,100.00
2022-10-01T08:26:53.385Z,100.00
2022-10-01T08:29:20.472Z,100.00
2022-10-01T08:31:47.419Z,100.00
2022-10-01T08:34:14.724Z,100.00
2022-10-01T08:36:41.344Z,100.00
2022-10-01T08:39:08.116Z,100.00
2022-10-01T08:41:45.020Z,100.00
2022-10-01T08:44:27.933Z,100.00
2022-10-01T08:47:03.756Z,100.00
2022-10-01T08:49:39.583Z,100.00
2022-10-01T08:52:37.053Z,100.00
2022-10-01T08:55:10.793Z,100.00
2022-10-01T08:57:42.195Z,100.00
2022-10-01T09:00:14.820Z,100.00
2022-10-01T09:02:43.860Z,100.00
2022-10-01T09:05:26.089Z,100.00
2022-10-01T09:08:16.455Z,100.00
2022-10-01T09:10:54.367Z,100.00
2022-10-01T09:13:39.867Z,100.00
2022-10-01T09:16:22.071Z,100.00
2022-10-01T09:18:57.786Z,100.00
2022-10-01T09:21:47.326Z,100.00
2022-10-01T09:24:23.085Z,100.00
2022-10-01T09:26:49.840Z,100.00
2022-10-01T09:29:29.053Z,100.00
2022-10-01T09:31:57.248Z,100.00
2022-10-01T09:34:37.645Z,100.00
2022-10-01T09:37:32.635Z,100.00
2022-10-01T09:40:09.386Z,100.00
2022-10-01T09:42:36.050Z,100.00
2022-10-01T09:45:02.754Z,100.00
2022-10-01T09:47:33.348Z,100.00
2022-10-01T09:50:04.667Z,100.00
2022-10-01T09:52:35.141Z,100.00
2022-10-01T09:55:32.772Z,100.00
2022-10-01T09:58:09.652Z,100.00
2022-10-01T10:00:38.844Z,100.00
2022-10-01T10:03:05.932Z,100.00
2022-10-01T10:05:49.539Z,100.00
2022-10-01T10:08:23.546Z,100.00
2022-10-01T10:10:54.397Z,100.00
2022-10-01T10:13:34.705Z,100.00
2022-10-01T10:16:17.527Z,100.00
2022-10-01T10:18:52.024Z,100.00
2022-10-01T10:21:23.341Z,100.00
2022-10-01T10:24:01.136Z,100.00
2022-10-01T10:26:34.289Z,100.00
2022-10-01T10:29:03.115Z,100.00
2022-10-01T10:31:39.947Z,100.00
2022-10-01T10:34:15.653Z,100.00
2022-10-01T10:36:44.294Z,100.00
2022-10-01T10:39:22.296Z,100.00
2022-10-01T10:41:51.498Z,100.00
2022-10-01T10:44:21.404Z,100.00
2022-10-01T10:46:50.107Z,100.00
2022-10-01T10:49:22.244Z,100.00
2022-10-01T10:51:56.764Z,100.00
2022-10-01T10:54:40.858Z,100.00
2022-10-01T10:57:30.067Z,96.75
2022-10-01T11:00:07.907Z,95.57
2022-10-01T11:02:35.234Z,98.55
2022-10-01T11:05:19.119Z,94.09
2022-10-01T11:07:48.464Z,90.44
2022-10-01T11:10:28.299Z,91.05
2022-10-01T11:13:01.087Z,88.31
2022-10-01T11:15:46.811Z,88.18
2022-10-01T11:18:42.893Z,89.35
2022-10-01T11:21:28.550Z,90.07
2022-10-01T11:24:07.469Z,91.94
2022-10-01T11:26:50.615Z,89.41
2022-10-01T11:29:36.049Z,91.82
2022-10-01T11:32:09.455Z,91.78
2022-10-01T11:34:50.582Z,89.01
2022-10-01T11:37:39.490Z,87.31
2022-10-01T11:40:28.566Z,89.40
2022-10-01T11:43:00.182Z,87.28
2022-10-01T11:45:41.902Z,87.66
2022-10-01T11:48:16.674Z,88.48
2022-10-01T11:50:49.684Z,87.10
2022-10-01T11:53:30.795Z,87.87
2022-10-01T11:56:22.585Z,88.16
2022-10-01T11:58:57.309Z,85.49
2022-10-01T12:01:24.301Z,84.25
2022-10-01T12:03:53.936Z,85.05
2022-10-01T12:06:33.003Z,85.21
2022-10-01T12:09:14.178Z,85.77
2022-10-01T12:11:52.739Z,84.64
2022-10-01T12:15:06.958Z,83.65
2022-10-01T12:17:41.228Z,83.50
2022-10-01T12:20:20.998Z,84.08
2022-10-01T12:22:48.666Z,86.62
2022-10-01T12:25:15.504Z,86.52
2022-10-01T12:27:49.706Z,89.48
2022-10-01T12:30:20.930Z,90.15
2022-10-01T12:33:04.870Z,92.55
2022-10-01T12:35:47.378Z,94.74
2022-10-01T12:38:24.130Z,96.96
2022-10-01T12:41:04.618Z,99.14
2022-10-01T12:43:49.639Z,99.13
2022-10-01T12:46:19.222Z,98.24
2022-10-01T12:49:04.574Z,97.64
2022-10-01T12:51:39.148Z,97.54
2022-10-01T12:54:28.789Z,94.99
2022-10-01T12:57:11.538Z,93.77
2022-10-01T12:59:41.199Z,93.17
2022-10-01T13:02:33.090Z,93.39
2022-10-01T13:05:20.102Z,94.10
2022-10-01T13:07:58.121Z,92.34
2022-10-01T13:10:41.911Z,92.03
2022-10-01T13:13:34.735Z,92.68
2022-10-01T13:16:41.031Z,92.85
2022-10-01T13:19:15.457Z,92.15
2022-10-01T13:22:07.913Z,93.02
2022-10-01T13:24:53.512Z,93.30
2022-10-01T13:27:51.580Z,92.27
2022-10-01T13:30:23.248Z,91.72
2022-10-01T13:33:00.896Z,91.65
2022-10-01T13:35:31.587Z,92.16
2022-10-01T13:38:01.881Z,91.86
2022-10-01T13:40:31.654Z,92.03
2022-10-01T13:43:02.389Z,91.27
2022-10-01T13:45:41.557Z,91.09
2022-10-01T13:48:11.184Z,91.22
2022-10-01T13:50:41.804Z,92.07
2022-10-01T13:53:21.784Z,92.41
2022-10-01T13:55:50.605Z,91.71
2022-10-01T13:58:38.336Z,91.67
2022-10-01T14:01:27.324Z,92.69
2022-10-01T14:04:18.657Z,93.10
2022-10-01T14:06:49.048Z,94.19
2022-10-01T14:09:27.765Z,93.17
2022-10-01T14:12:26.765Z,93.99
2022-10-01T14:15:18.046Z,95.06
2022-10-01T14:17:46.612Z,93.39
2022-10-01T14:20:24.099Z,94.20
2022-10-01T14:23:06.995Z,94.05
2022-10-01T14:25:42.993Z,93.90
2022-10-01T14:28:29.746Z,96.09
2022-10-01T14:31:34.770Z,97.00
2022-10-01T14:34:20.199Z,97.13
2022-10-01T14:36:52.320Z,96.51
2022-10-01T14:39:30.044Z,96.06
2022-10-01T14:41:58.084Z,97.38
2022-10-01T14:44:29.030Z,97.37
2022-10-01T14:47:00.060Z,96.91
2022-10-01T14:49:29.680Z,97.45
2022-10-01T14:52:23.004Z,97.02
2022-10-01T14:55:06.814Z,97.63
2022-10-01T14:57:36.399Z,96.45
2022-10-01T15:00:09.834Z,96.29
2022-10-01T15:02:48.939Z,97.87
2022-10-01T15:05:28.247Z,98.10
2022-10-01T15:07:55.143Z,97.95
2022-10-01T15:10:27.020Z,97.25
2022-10-01T15:12:55.199Z,97.89
2022-10-01T15:15:31.261Z,98.46
2022-10-01T15:17:58.427Z,98.73
2022-10-01T15:20:25.416Z,99.15
2022-10-01T15:23:01.093Z,98.82
2022-10-01T15:25:31.222Z,100.00
2022-10-01T15:27:57.922Z,100.00
2022-10-01T15:30:27.497Z,98.66
2022-10-01T15:32:54.560Z,99.25
2022-10-01T15:35:23.554Z,99.14
2022-10-01T15:37:51.757Z,99.34
2022-10-01T15:40:21.217Z,98.91
2022-10-01T15:43:14.685Z,98.79
2022-10-01T15:45:42.479Z,99.11
2022-10-01T15:48:28.263Z,99.80
2022-10-01T15:51:12.909Z,98.85
2022-10-01T15:53:39.753Z,98.38
2022-10-01T15:56:15.378Z,100.00
2022-10-01T15:58:48.551Z,99.72
2022-10-01T16:01:22.077Z,99.56
2022-10-01T16:04:02.535Z,99.40
2022-10-01T16:06:44.686Z,98.59
2022-10-01T16:09:18.210Z,98.97
2022-10-01T16:11:52.117Z,100.00
2022-10-01T16:14:24.665Z,100.00
2022-10-01T16:17:26.368Z,100.00
2022-10-01T16:19:56.868Z,100.00
2022-10-01T16:22:28.027Z,100.00
2022-10-01T16:25:00.961Z,100.00
2022-10-01T16:27:29.647Z,100.00
2022-10-01T16:30:09.623Z,100.00
2022-10-01T16:32:36.478Z,100.00
2022-10-01T16:35:23.119Z,100.00
2022-10-01T16:37:51.794Z,100.00
2022-10-01T16:40:20.938Z,100.00
2022-10-01T16:42:50.614Z,100.00
2022-10-01T16:45:22.609Z,100.00
2022-10-01T16:47:49.384Z,100.00
2022-10-01T16:50:18.327Z,100.00
2022-10-01T16:52:45.258Z,100.00
2022-10-01T16:55:17.987Z,100.00
2022-10-01T16:57:44.954Z,100.00
2022-10-01T17:00:20.577Z,100.00
2022-10-01T17:02:47.492Z,100.00
2022-10-01T17:05:28.322Z,100.00
2022-10-01T17:08:01.038Z,100.00
2022-10-01T17:10:31.797Z,100.00
2022-10-01T17:12:59.692Z,100.00
2022-10-01T17:15:30.405Z,100.00
2022-10-01T17:17:58.281Z,100.00
2022-10-01T17:20:28.431Z,100.00
2022-10-01T17:22:56.457Z,100.00
2022-10-01T17:25:25.730Z,100.00
2022-10-01T17:27:52.728Z,100.00
2022-10-01T17:30:19.442Z,100.00
2022-10-01T17:32:46.623Z,100.00
2022-10-01T17:35:15.385Z,100.00
2022-10-01T17:37:43.014Z,100.00
2022-10-01T17:40:10.855Z,100.00
2022-10-01T17:42:37.542Z,100.00
2022-10-01T17:45:07.460Z,100.00
2022-10-01T17:47:34.007Z,100.00
2022-10-01T17:50:01.026Z,100.00
2022-10-01T17:52:27.683Z,100.00
2022-10-01T17:54:54.519Z,100.00
2022-10-01T17:57:21.381Z,100.00
2022-10-01T17:59:48.027Z,100.00
2022-10-01T18:02:39.763Z,100.00
2022-10-01T18:05:04.089Z,100.00
2022-10-01T18:07:30.703Z,100.00
2022-10-01T18:09:57.540Z,100.00
2022-10-01T18:12:24.358Z,100.00
2022-10-01T18:14:51.021Z,100.00
2022-10-01T18:17:18.107Z,100.00
2022-10-01T18:19:53.732Z,100.00
2022-10-01T18:22:21.327Z,100.00
2022-10-01T18:24:48.152Z,100.00
2022-10-01T18:27:14.992Z,100.00
2022-10-01T18:29:41.721Z,100.00
2022-10-01T18:32:24.927Z,100.00
2022-10-01T18:34:59.066Z,100.00
2022-10-01T18:37:49.285Z,100.00
2022-10-01T18:40:26.831Z,100.00
2022-10-01T18:43:07.227Z,100.00
2022-10-01T18:45:36.796Z,100.00
2022-10-01T18:48:24.869Z,100.00
2022-10-01T18:50:57.572Z,100.00
2022-10-01T18:53:38.008Z,99.78
2022-10-01T18:56:32.090Z,93.94
2022-10-01T18:58:58.904Z,88.61
2022-10-01T19:01:52.272Z,81.64
2022-10-01T19:05:05.429Z,82.64
2022-10-01T19:07:49.833Z,82.38
2022-10-01T19:10:44.400Z,80.82
2022-10-01T19:13:26.451Z,74.20
2022-10-01T19:16:12.802Z,75.30
2022-10-01T19:19:07.188Z,75.88
2022-10-01T19:21:52.755Z,73.02
2022-10-01T19:24:57.861Z,73.81
2022-10-01T19:27:51.112Z,75.73
2022-10-01T19:30:19.856Z,78.82
2022-10-01T19:32:59.340Z,80.06
2022-10-01T19:35:37.724Z,79.95
2022-10-01T19:38:23.291Z,81.40
2022-10-01T19:41:02.630Z,83.17
2022-10-01T19:43:37.061Z,80.64
2022-10-01T19:46:15.262Z,79.28
2022-10-01T19:48:48.548Z,81.05
2022-10-01T19:51:19.754Z,83.53
2022-10-01T19:53:51.399Z,82.79
2022-10-01T19:56:25.988Z,83.40
2022-10-01T19:58:52.850Z,85.27
2022-10-01T20:01:24.124Z,85.72
2022-10-01T20:04:00.969Z,86.10
2022-10-01T20:06:35.727Z,87.39
2022-10-01T20:09:35.301Z,88.57
2022-10-01T20:12:47.726Z,86.68
2022-10-01T20:15:59.600Z,88.56
2022-10-01T20:18:34.005Z,88.11
2022-10-01T20:21:51.766Z,89.20
2022-10-01T20:24:28.964Z,88.19
2022-10-01T20:27:11.607Z,88.57
2022-10-01T20:29:47.547Z,88.63
2022-10-01T20:32:39.061Z,89.75
2022-10-01T20:35:18.612Z,89.39
2022-10-01T20:38:13.233Z,92.03
2022-10-01T20:40:43.148Z,90.81
2022-10-01T20:43:30.689Z,91.28
2022-10-01T20:46:02.614Z,90.32
2022-10-01T20:48:36.755Z,91.27
2022-10-01T20:51:09.647Z,90.76
2022-10-01T20:53:49.246Z,90.81
2022-10-01T20:56:29.668Z,93.06
2022-10-01T20:59:04.018Z,92.39
2022-10-01T21:01:35.298Z,92.02
2022-10-01T21:04:28.197Z,92.24
2022-10-01T21:07:01.993Z,91.44
2022-10-01T21:09:35.464Z,91.63
2022-10-01T21:12:07.224Z,92.77
2022-10-01T21:14:36.421Z,92.10
2022-10-01T21:17:21.844Z,92.43
2022-10-01T21:20:13.201Z,92.66
2022-10-01T21:23:01.533Z,92.49
2022-10-01T21:25:31.090Z,91.92
2022-10-01T21:28:22.045Z,92.74
2022-10-01T21:31:12.451Z,93.62
2022-10-01T21:33:51.968Z,95.14
2022-10-01T21:36:30.834Z,95.49
2022-10-01T21:39:17.738Z,96.03
2022-10-01T21:41:53.734Z,95.33
2022-10-01T21:45:04.932Z,94.79
2022-10-01T21:47:43.707Z,95.85
2022-10-01T21:50:35.389Z,95.96
2022-10-01T21:53:23.375Z,96.15
2022-10-01T21:56:24.747Z,96.13
2022-10-01T21:59:08.278Z,97.35
2022-10-01T22:01:53.405Z,97.89
2022-10-01T22:04:38.388Z,96.67
2022-10-01T22:07:11.234Z,96.71
2022-10-01T22:09:53.598Z,96.68
2022-10-01T22:12:21.556Z,96.66
2022-10-01T22:14:51.424Z,97.01
2022-10-01T22:17:20.387Z,97.31
2022-10-01T22:19:52.393Z,98.16
2022-10-01T22:22:28.501Z,98.92
2022-10-01T22:24:58.607Z,98.71
2022-10-01T22:27:32.192Z,99.78
2022-10-01T22:30:06.662Z,99.86
2022-10-01T22:32:55.909Z,100.00
2022-10-01T22:35:28.436Z,99.26
2022-10-01T22:38:07.200Z,98.61
2022-10-01T22:40:40.421Z,98.03
2022-10-01T22:43:11.182Z,98.04
2022-10-01T22:46:17.932Z,98.79
2022-10-01T22:48:56.035Z,100.00
2022-10-01T22:51:41.418Z,100.00
2022-10-01T22:54:31.910Z,100.00
2022-10-01T22:57:13.502Z,100.00
2022-10-01T22:59:49.239Z,100.00
2022-10-01T23:02:25.548Z,100.00
2022-10-01T23:05:09.394Z,100.00
2022-10-01T23:07:44.279Z,100.00
2022-10-01T23:10:20.732Z,100.00
2022-10-01T23:13:05.312Z,100.00
2022-10-01T23:16:00.310Z,100.00
2022-10-01T23:18:48.848Z,100.00
2022-10-01T23:21:46.883Z,100.00
2022-10-01T23:24:33.854Z,100.00
2022-10-01T23:27:45.432Z,100.00
2022-10-01T23:30:20.242Z,100.00
2022-10-01T23:33:17.147Z,100.00
2022-10-01T23:36:05.703Z,100.00
2022-10-01T23:38:32.401Z,100.00
2022-10-01T23:41:08.563Z,100.00
2022-10-01T23:43:48.301Z,100.00
2022-10-01T23:46:23.795Z,100.00
2022-10-01T23:49:02.053Z,100.00
2022-10-01T23:51:52.163Z,100.00
2022-10-01T23:54:44.232Z,100.00
2022-10-01T23:57:29.182Z,100.00
